createdAt,value
2019-01-31T00:00:14.499Z,0.31
2019-01-31T00:01:14.313Z,0.29
2019-01-31T00:02:14.320Z,0.29
2019-01-31T00:03:21.271Z,0.37
2019-01-31T00:04:14.194Z,0.34
2019-01-31T00:05:14.164Z,0.31
2019-01-31T00:06:14.117Z,0.36
2019-01-31T00:07:14.134Z,0.39
2019-01-31T00:08:14.046Z,0.34
2019-01-31T00:09:14.063Z,0.34
2019-01-31T00:10:13.969Z,0.32
2019-01-31T00:11:13.933Z,0.29
2019-01-31T00:12:13.897Z,0.39
2019-01-31T00:13:13.890Z,0.37
2019-01-31T00:14:13.872Z,0.39
2019-01-31T00:15:13.784Z,0.26
2019-01-31T00:16:13.789Z,0.46
2019-01-31T00:17:13.714Z,0.37
2019-01-31T00:18:13.679Z,0.32
2019-01-31T00:19:13.642Z,0.34
2019-01-31T00:20:13.648Z,0.37
2019-01-31T00:21:13.631Z,0.29
2019-01-31T00:22:13.532Z,0.32
2019-01-31T00:23:13.497Z,0.36
2019-01-31T00:24:13.459Z,0.32
2019-01-31T00:25:13.419Z,0.32
2019-01-31T00:26:13.425Z,0.34
2019-01-31T00:27:13.352Z,0.32
2019-01-31T00:28:13.324Z,0.37
2019-01-31T00:29:13.280Z,0.36
2019-01-31T00:30:13.276Z,0.32
2019-01-31T00:31:13.199Z,0.37
2019-01-31T00:32:13.216Z,0.34
2019-01-31T00:33:13.166Z,0.36
2019-01-31T00:34:13.100Z,0.23
2019-01-31T00:35:13.970Z,0.21
2019-01-31T00:36:13.020Z,0.28
2019-01-31T00:37:13.028Z,0.25
2019-01-31T00:38:12.962Z,0.29
2019-01-31T00:39:12.904Z,0.28
2019-01-31T00:40:12.909Z,0.28
2019-01-31T00:41:12.842Z,0.29
2019-01-31T00:42:12.846Z,0.29
2019-01-31T00:43:12.769Z,0.28
2019-01-31T00:44:12.723Z,0.29
2019-01-31T00:45:12.689Z,0.32
2019-01-31T00:46:12.651Z,0.19
2019-01-31T00:47:12.655Z,0.21
2019-01-31T00:48:12.638Z,0.19
2019-01-31T00:49:13.061Z,0.18
2019-01-31T00:50:12.503Z,0.16
2019-01-31T00:51:12.465Z,0.19
2019-01-31T00:52:12.538Z,0.16
2019-01-31T00:53:12.401Z,0.16
2019-01-31T00:54:12.363Z,0.18
2019-01-31T00:55:12.318Z,0.11
2019-01-31T00:56:12.284Z,0.03
2019-01-31T00:57:12.300Z,0.05
2019-01-31T00:58:12.213Z,0.01
2019-01-31T00:59:12.183Z,0.03
2019-01-31T01:00:12.140Z,0.07
2019-01-31T01:01:12.100Z,0.03
2019-01-31T01:02:12.112Z,0.08
2019-01-31T01:03:12.025Z,0.12
2019-01-31T01:04:12.027Z,0.10
2019-01-31T01:05:11.953Z,0.08
2019-01-31T01:06:11.917Z,0.11
2019-01-31T01:07:11.880Z,0.10
2019-01-31T01:08:11.891Z,0.07
2019-01-31T01:09:11.808Z,0.16
2019-01-31T01:10:12.123Z,0.10
2019-01-31T01:11:11.770Z,0.11
2019-01-31T01:12:11.694Z,0.18
2019-01-31T01:13:11.662Z,0.08
2019-01-31T01:14:12.570Z,0.11
2019-01-31T01:15:11.587Z,0.11
2019-01-31T01:16:11.587Z,0.11
2019-01-31T01:17:11.564Z,0.16
2019-01-31T01:18:11.475Z,0.16
2019-01-31T01:19:11.446Z,0.11
2019-01-31T01:20:11.452Z,0.12
2019-01-31T01:21:11.414Z,0.08
2019-01-31T01:22:11.330Z,0.16
2019-01-31T01:23:11.294Z,0.18
2019-01-31T01:24:11.363Z,0.16
2019-01-31T01:25:11.218Z,0.15
2019-01-31T01:26:11.240Z,0.18
2019-01-31T01:27:11.199Z,0.11
2019-01-31T01:28:11.209Z,0.10
2019-01-31T01:29:11.075Z,0.12
2019-01-31T01:30:11.039Z,0.16
2019-01-31T01:31:10.998Z,0.15
2019-01-31T01:32:11.104Z,0.07
2019-01-31T01:33:10.974Z,0.15
2019-01-31T01:34:10.894Z,0.16
2019-01-31T01:35:10.851Z,0.15
2019-01-31T01:36:10.820Z,0.08
2019-01-31T01:37:10.780Z,0.11
2019-01-31T01:38:10.793Z,0.16
2019-01-31T01:39:18.933Z,0.19
2019-01-31T01:40:10.674Z,0.18
2019-01-31T01:41:10.634Z,0.18
2019-01-31T01:42:10.686Z,0.16
2019-01-31T01:43:10.603Z,0.16
2019-01-31T01:44:10.568Z,0.18
2019-01-31T01:45:10.489Z,0.19
2019-01-31T01:46:10.451Z,0.15
2019-01-31T01:47:10.418Z,0.15
2019-01-31T01:48:10.375Z,0.16
2019-01-31T01:49:10.382Z,0.19
2019-01-31T01:50:10.300Z,0.10
2019-01-31T01:51:10.264Z,0.08
2019-01-31T01:52:10.235Z,0.07
2019-01-31T01:53:10.199Z,0.08
2019-01-31T01:54:10.203Z,0.15
2019-01-31T01:55:10.170Z,0.18
2019-01-31T01:56:10.086Z,0.12
2019-01-31T01:57:10.048Z,0.15
2019-01-31T01:58:10.014Z,0.11
2019-01-31T01:59:10.021Z,0.10
2019-01-31T02:00:09.937Z,0.07
2019-01-31T02:01:09.944Z,0.10
2019-01-31T02:02:09.864Z,0.19
2019-01-31T02:03:09.830Z,0.18
2019-01-31T02:04:09.821Z,0.16
2019-01-31T02:05:09.799Z,0.11
2019-01-31T02:06:09.764Z,0.10
2019-01-31T02:07:09.678Z,0.18
2019-01-31T02:08:09.643Z,0.15
2019-01-31T02:09:09.607Z,0.07
2019-01-31T02:10:09.627Z,0.11
2019-01-31T02:11:09.538Z,0.11
2019-01-31T02:12:09.502Z,0.12
2019-01-31T02:13:09.466Z,0.19
2019-01-31T02:14:09.454Z,0.11
2019-01-31T02:15:09.982Z,0.12
2019-01-31T02:16:09.350Z,0.08
2019-01-31T02:17:09.360Z,0.12
2019-01-31T02:18:10.068Z,0.11
2019-01-31T02:19:09.239Z,0.15
2019-01-31T02:20:09.208Z,0.12
2019-01-31T02:21:09.206Z,0.18
2019-01-31T02:22:09.130Z,0.16
2019-01-31T02:23:09.100Z,0.23
2019-01-31T02:24:09.073Z,0.19
2019-01-31T02:25:09.018Z,0.16
2019-01-31T02:26:09.043Z,0.15
2019-01-31T02:27:08.945Z,0.18
2019-01-31T02:28:08.911Z,0.19
2019-01-31T02:29:08.877Z,0.15
2019-01-31T02:30:08.838Z,0.18
2019-01-31T02:31:08.855Z,0.22
2019-01-31T02:32:08.769Z,0.16
2019-01-31T02:33:08.729Z,0.25
2019-01-31T02:34:08.742Z,0.11
2019-01-31T02:35:08.658Z,0.15
2019-01-31T02:36:08.667Z,0.10
2019-01-31T02:37:08.582Z,0.15
2019-01-31T02:38:08.565Z,0.15
2019-01-31T02:39:14.475Z,0.18
2019-01-31T02:40:08.522Z,0.10
2019-01-31T02:41:08.439Z,0.11
2019-01-31T02:42:08.444Z,0.15
2019-01-31T02:43:08.392Z,0.07
2019-01-31T02:44:08.327Z,0.07
2019-01-31T02:45:08.332Z,0.16
2019-01-31T02:46:08.253Z,0.04
2019-01-31T02:47:08.266Z,0.05
2019-01-31T02:48:08.219Z,0.01
2019-01-31T02:49:08.142Z,0.04
2019-01-31T02:50:08.170Z,-0.03
2019-01-31T02:51:08.074Z,-0.06
2019-01-31T02:52:08.030Z,-0.06
2019-01-31T02:53:08.049Z,-0.07
2019-01-31T02:54:07.968Z,-0.08
2019-01-31T02:55:07.928Z,-0.02
2019-01-31T02:56:07.886Z,-0.15
2019-01-31T02:57:07.889Z,-0.10
2019-01-31T02:58:07.856Z,-0.15
2019-01-31T02:59:07.835Z,-0.18
2019-01-31T03:00:07.741Z,-0.26
2019-01-31T03:01:07.746Z,-0.18
2019-01-31T03:02:07.666Z,-0.21
2019-01-31T03:03:07.636Z,-0.11
2019-01-31T03:04:07.631Z,-0.13
2019-01-31T03:05:07.555Z,-0.13
2019-01-31T03:06:07.559Z,-0.15
2019-01-31T03:07:07.537Z,-0.18
2019-01-31T03:08:07.443Z,-0.18
2019-01-31T03:09:07.412Z,-0.26
2019-01-31T03:10:08.080Z,-0.28
2019-01-31T03:11:07.333Z,-0.20
2019-01-31T03:12:07.353Z,-0.26
2019-01-31T03:13:07.263Z,-0.21
2019-01-31T03:14:10.149Z,-0.20
2019-01-31T03:15:07.192Z,-0.18
2019-01-31T03:16:07.148Z,-0.26
2019-01-31T03:17:07.153Z,-0.17
2019-01-31T03:18:07.080Z,-0.32
2019-01-31T03:19:07.073Z,-0.28
2019-01-31T03:20:07.571Z,-0.25
2019-01-31T03:21:06.966Z,-0.21
2019-01-31T03:22:06.924Z,-0.26
2019-01-31T03:23:06.978Z,-0.23
2019-01-31T03:24:06.900Z,-0.15
2019-01-31T03:25:06.865Z,-0.18
2019-01-31T03:26:06.787Z,-0.18
2019-01-31T03:27:06.754Z,-0.17
2019-01-31T03:28:06.705Z,-0.13
2019-01-31T03:29:06.672Z,-0.03
2019-01-31T03:30:06.687Z,-0.08
2019-01-31T03:31:06.598Z,-0.07
2019-01-31T03:32:06.564Z,-0.07
2019-01-31T03:33:06.527Z,-0.07
2019-01-31T03:34:06.489Z,-0.07
2019-01-31T03:35:06.487Z,-0.06
2019-01-31T03:36:07.979Z,-0.02
2019-01-31T03:37:06.382Z,-0.03
2019-01-31T03:38:06.355Z,-0.02
2019-01-31T03:39:06.307Z,-0.06
2019-01-31T03:40:07.495Z,-0.06
2019-01-31T03:41:06.239Z,-0.02
2019-01-31T03:42:06.195Z,0.05
2019-01-31T03:43:06.167Z,0.05
2019-01-31T03:44:06.121Z,0.15
2019-01-31T03:45:06.135Z,0.16
2019-01-31T03:46:06.987Z,0.18
2019-01-31T03:47:06.016Z,0.18
2019-01-31T03:48:05.978Z,0.18
2019-01-31T03:49:05.982Z,0.16
2019-01-31T03:50:06.956Z,0.31
2019-01-31T03:51:05.863Z,0.22
2019-01-31T03:52:05.847Z,0.19
2019-01-31T03:53:05.795Z,0.28
2019-01-31T03:54:05.806Z,0.21
2019-01-31T03:55:05.718Z,0.23
2019-01-31T03:56:05.681Z,0.23
2019-01-31T03:57:05.657Z,0.21
2019-01-31T03:58:05.654Z,0.22
2019-01-31T03:59:05.579Z,0.18
2019-01-31T04:00:05.539Z,0.19
2019-01-31T04:01:05.504Z,0.22
2019-01-31T04:02:05.464Z,0.18
2019-01-31T04:03:05.475Z,0.19
2019-01-31T04:04:05.394Z,0.12
2019-01-31T04:05:05.413Z,0.19
2019-01-31T04:06:05.364Z,0.08
2019-01-31T04:07:05.286Z,0.10
2019-01-31T04:08:05.245Z,0.05
2019-01-31T04:09:05.210Z,0.12
2019-01-31T04:10:05.188Z,0.03
2019-01-31T04:11:05.183Z,0.07
2019-01-31T04:12:05.107Z,0.03
2019-01-31T04:13:05.981Z,0.01
2019-01-31T04:14:05.030Z,-0.07
2019-01-31T04:15:05.529Z,-0.07
2019-01-31T04:16:05.034Z,-0.08
2019-01-31T04:17:05.004Z,-0.15
2019-01-31T04:18:04.969Z,-0.14
2019-01-31T04:19:04.851Z,-0.17
2019-01-31T04:20:04.809Z,-0.20
2019-01-31T04:21:04.781Z,-0.20
2019-01-31T04:22:04.794Z,-0.26
2019-01-31T04:23:04.702Z,-0.13
2019-01-31T04:24:04.716Z,-0.21
2019-01-31T04:25:04.626Z,-0.23
2019-01-31T04:26:04.589Z,-0.20
2019-01-31T04:27:04.550Z,-0.20
2019-01-31T04:28:04.574Z,-0.38
2019-01-31T04:29:04.479Z,-0.36
2019-01-31T04:30:04.443Z,-0.32
2019-01-31T04:31:04.416Z,-0.31
2019-01-31T04:32:04.383Z,-0.38
2019-01-31T04:33:04.389Z,-0.38
2019-01-31T04:34:04.340Z,-0.44
2019-01-31T04:35:04.256Z,-0.43
2019-01-31T04:36:04.220Z,-0.49
2019-01-31T04:37:04.206Z,-0.43
2019-01-31T04:38:04.190Z,-0.52
2019-01-31T04:39:04.123Z,-0.56
2019-01-31T04:40:04.079Z,-0.54
2019-01-31T04:41:04.081Z,-0.57
2019-01-31T04:42:04.004Z,-0.75
2019-01-31T04:43:04.039Z,-0.67
2019-01-31T04:44:03.928Z,-0.64
2019-01-31T04:45:03.900Z,-0.67
2019-01-31T04:46:03.909Z,-0.70
2019-01-31T04:47:03.838Z,-0.71
2019-01-31T04:48:03.781Z,-0.82
2019-01-31T04:49:03.748Z,-0.78
2019-01-31T04:50:03.750Z,-0.77
2019-01-31T04:51:04.143Z,-0.86
2019-01-31T04:52:03.635Z,-0.85
2019-01-31T04:53:03.660Z,-0.91
2019-01-31T04:54:03.560Z,-0.89
2019-01-31T04:55:03.593Z,-0.89
2019-01-31T04:56:03.539Z,-0.82
2019-01-31T04:57:03.498Z,-0.77
2019-01-31T04:58:03.419Z,-0.83
2019-01-31T04:59:03.378Z,-0.85
2019-01-31T05:00:03.416Z,-0.85
2019-01-31T05:01:03.353Z,-0.83
2019-01-31T05:02:04.082Z,-0.77
2019-01-31T05:03:03.273Z,-0.85
2019-01-31T05:04:03.199Z,-0.72
2019-01-31T05:05:03.167Z,-0.77
2019-01-31T05:06:03.123Z,-0.67
2019-01-31T05:07:03.127Z,-0.67
2019-01-31T05:08:03.042Z,-0.65
2019-01-31T05:09:03.006Z,-0.59
2019-01-31T05:10:03.000Z,-0.70
2019-01-31T05:11:02.947Z,-0.62
2019-01-31T05:12:03.131Z,-0.57
2019-01-31T05:13:02.915Z,-0.53
2019-01-31T05:14:02.822Z,-0.56
2019-01-31T05:15:02.787Z,-0.46
2019-01-31T05:16:03.806Z,-0.53
2019-01-31T05:17:02.757Z,-0.41
2019-01-31T05:18:02.672Z,-0.36
2019-01-31T05:19:02.638Z,-0.36
2019-01-31T05:20:02.651Z,-0.39
2019-01-31T05:21:02.563Z,-0.49
2019-01-31T05:22:02.540Z,-0.44
2019-01-31T05:23:02.489Z,-0.52
2019-01-31T05:24:02.451Z,-0.52
2019-01-31T05:25:02.474Z,-0.49
2019-01-31T05:26:02.390Z,-0.54
2019-01-31T05:27:04.409Z,-0.52
2019-01-31T05:28:02.302Z,-0.56
2019-01-31T05:29:02.269Z,-0.52
2019-01-31T05:30:02.629Z,-0.50
2019-01-31T05:31:02.268Z,-0.46
2019-01-31T05:32:02.158Z,-0.50
2019-01-31T05:33:02.132Z,-0.52
2019-01-31T05:34:02.136Z,-0.53
2019-01-31T05:35:05.986Z,-0.47
2019-01-31T05:36:02.008Z,-0.53
2019-01-31T05:37:02.018Z,-0.59
2019-01-31T05:38:01.960Z,-0.53
2019-01-31T05:39:01.899Z,-0.53
2019-01-31T05:40:02.544Z,-0.54
2019-01-31T05:41:01.899Z,-0.54
2019-01-31T05:42:01.833Z,-0.53
2019-01-31T05:43:01.753Z,-0.54
2019-01-31T05:44:01.717Z,-0.59
2019-01-31T05:45:02.579Z,-0.65
2019-01-31T05:46:01.734Z,-0.64
2019-01-31T05:47:01.608Z,-0.50
2019-01-31T05:48:01.659Z,-0.62
2019-01-31T05:49:01.567Z,-0.53
2019-01-31T05:50:01.588Z,-0.61
2019-01-31T05:51:01.461Z,-0.53
2019-01-31T05:52:01.423Z,-0.56
2019-01-31T05:53:01.437Z,-0.46
2019-01-31T05:54:01.359Z,-0.49
2019-01-31T05:55:01.309Z,-0.43
2019-01-31T05:56:01.274Z,-0.39
2019-01-31T05:57:01.250Z,-0.44
2019-01-31T05:58:01.264Z,-0.50
2019-01-31T05:59:01.171Z,-0.47
2019-01-31T06:00:01.155Z,-0.36
2019-01-31T06:01:01.152Z,-0.38
2019-01-31T06:02:01.053Z,-0.35
2019-01-31T06:03:01.015Z,-0.28
2019-01-31T06:04:08.037Z,-0.38
2019-01-31T06:05:00.946Z,-0.26
2019-01-31T06:06:00.965Z,-0.20
2019-01-31T06:07:10.865Z,-0.23
2019-01-31T06:08:00.836Z,-0.20
2019-01-31T06:09:00.798Z,-0.20
2019-01-31T06:10:00.761Z,-0.23
2019-01-31T06:11:07.655Z,-0.21
2019-01-31T06:12:00.743Z,-0.13
2019-01-31T06:13:00.741Z,-0.14
2019-01-31T06:14:00.615Z,-0.18
2019-01-31T06:15:00.601Z,-0.14
2019-01-31T06:16:00.587Z,-0.14
2019-01-31T06:17:00.512Z,-0.17
2019-01-31T06:18:00.474Z,-0.15
2019-01-31T06:19:00.459Z,-0.15
2019-01-31T06:20:00.446Z,-0.13
2019-01-31T06:21:00.359Z,-0.07
2019-01-31T06:22:00.324Z,0.04
2019-01-31T06:23:00.288Z,0.03
2019-01-31T06:24:00.254Z,0.03
2019-01-31T06:25:00.308Z,-0.03
2019-01-31T06:26:00.184Z,0.10
2019-01-31T06:27:00.147Z,0.15
2019-01-31T06:28:00.154Z,0.15
2019-01-31T06:29:00.146Z,0.16
2019-01-31T06:30:00.134Z,0.12
2019-01-31T06:31:00.074Z,0.25
2019-01-31T06:32:00.061Z,0.18
2019-01-31T06:33:01.014Z,0.12
2019-01-31T06:33:59.981Z,0.29
2019-01-31T06:34:59.962Z,0.28
2019-01-31T06:35:59.905Z,0.25
2019-01-31T06:36:59.787Z,0.31
2019-01-31T06:37:59.794Z,0.36
2019-01-31T06:38:59.712Z,0.34
2019-01-31T06:39:59.722Z,0.34
2019-01-31T06:40:59.640Z,0.46
2019-01-31T06:41:59.616Z,0.46
2019-01-31T06:42:59.566Z,0.47
2019-01-31T06:43:59.532Z,0.43
2019-01-31T06:44:59.541Z,0.44
2019-01-31T06:45:59.461Z,0.56
2019-01-31T06:46:59.454Z,0.43
2019-01-31T06:47:59.445Z,0.56
2019-01-31T06:48:59.353Z,0.47
2019-01-31T06:49:59.317Z,0.56
2019-01-31T06:50:59.281Z,0.50
2019-01-31T06:51:59.291Z,0.62
2019-01-31T06:52:59.213Z,0.62
2019-01-31T06:53:59.222Z,0.65
2019-01-31T06:54:59.138Z,0.69
2019-01-31T06:55:59.104Z,0.73
2019-01-31T06:56:59.082Z,0.74
2019-01-31T06:57:59.033Z,0.69
2019-01-31T06:58:59.057Z,0.74
2019-01-31T06:59:58.960Z,0.80
2019-01-31T07:00:58.925Z,0.78
2019-01-31T07:01:58.886Z,0.76
2019-01-31T07:02:58.850Z,0.87
2019-01-31T07:03:58.875Z,0.86
2019-01-31T07:04:58.783Z,0.88
2019-01-31T07:05:58.747Z,0.96
2019-01-31T07:06:58.713Z,0.91
2019-01-31T07:07:58.686Z,0.91
2019-01-31T07:08:58.682Z,0.87
2019-01-31T07:09:58.609Z,0.87
2019-01-31T07:10:58.567Z,1.01
2019-01-31T07:11:58.532Z,1.01
2019-01-31T07:12:58.494Z,0.98
2019-01-31T07:13:58.502Z,0.94
2019-01-31T07:14:58.464Z,0.87
2019-01-31T07:15:58.389Z,0.87
2019-01-31T07:16:58.399Z,1.05
2019-01-31T07:17:58.331Z,1.01
2019-01-31T07:18:58.282Z,1.01
2019-01-31T07:19:58.299Z,0.94
2019-01-31T07:20:58.275Z,1.12
2019-01-31T07:21:58.205Z,1.06
2019-01-31T07:22:58.139Z,1.04
2019-01-31T07:23:58.110Z,0.99
2019-01-31T07:24:58.080Z,1.04
2019-01-31T07:25:58.087Z,1.05
2019-01-31T07:26:58.046Z,1.04
2019-01-31T07:27:57.968Z,1.05
2019-01-31T07:28:57.927Z,1.04
2019-01-31T07:29:57.895Z,1.08
2019-01-31T07:30:58.001Z,1.08
2019-01-31T07:31:57.882Z,1.04
2019-01-31T07:32:57.787Z,1.08
2019-01-31T07:33:57.757Z,1.06
2019-01-31T07:34:57.715Z,1.05
2019-01-31T07:35:57.728Z,1.08
2019-01-31T07:36:57.698Z,1.14
2019-01-31T07:37:57.653Z,1.10
2019-01-31T07:38:57.630Z,1.17
2019-01-31T07:39:57.578Z,1.16
2019-01-31T07:40:57.502Z,1.17
2019-01-31T07:41:57.467Z,1.14
2019-01-31T07:42:57.484Z,1.19
2019-01-31T07:43:57.397Z,1.13
2019-01-31T07:44:57.364Z,1.08
2019-01-31T07:45:57.325Z,1.08
2019-01-31T07:46:57.376Z,1.12
2019-01-31T07:47:57.302Z,1.16
2019-01-31T07:48:57.221Z,1.14
2019-01-31T07:49:57.187Z,1.22
2019-01-31T07:50:57.151Z,1.17
2019-01-31T07:51:57.160Z,1.26
2019-01-31T07:52:57.079Z,1.22
2019-01-31T07:53:57.064Z,1.17
2019-01-31T07:54:57.009Z,1.32
2019-01-31T07:55:57.174Z,1.28
2019-01-31T07:56:56.956Z,1.32
2019-01-31T07:57:56.911Z,1.32
2019-01-31T07:58:56.866Z,1.40
2019-01-31T07:59:56.879Z,1.30
2019-01-31T08:00:56.800Z,1.34
2019-01-31T08:01:56.843Z,1.35
2019-01-31T08:02:56.725Z,1.31
2019-01-31T08:04:02.564Z,1.42
2019-01-31T08:04:56.710Z,1.45
2019-01-31T08:05:56.628Z,1.48
2019-01-31T08:06:56.584Z,1.48
2019-01-31T08:07:56.558Z,1.44
2019-01-31T08:08:56.516Z,1.41
2019-01-31T08:09:56.548Z,1.31
2019-01-31T08:10:56.458Z,1.45
2019-01-31T08:11:56.408Z,1.52
2019-01-31T08:12:56.377Z,1.45
2019-01-31T08:13:56.344Z,1.44
2019-01-31T08:14:56.350Z,1.52
2019-01-31T08:15:56.311Z,1.59
2019-01-31T08:16:56.239Z,1.50
2019-01-31T08:17:56.201Z,1.58
2019-01-31T08:18:56.165Z,1.66
2019-01-31T08:19:56.131Z,1.67
2019-01-31T08:20:56.144Z,1.70
2019-01-31T08:21:56.061Z,1.70
2019-01-31T08:22:56.027Z,1.71
2019-01-31T08:23:55.990Z,1.67
2019-01-31T08:24:55.958Z,1.77
2019-01-31T08:25:55.972Z,1.68
2019-01-31T08:26:56.093Z,1.70
2019-01-31T08:27:55.867Z,1.66
2019-01-31T08:28:55.814Z,1.80
2019-01-31T08:29:55.780Z,1.68
2019-01-31T08:30:55.810Z,1.73
2019-01-31T08:31:55.717Z,1.80
2019-01-31T08:32:55.682Z,1.68
2019-01-31T08:33:55.640Z,1.70
2019-01-31T08:34:55.606Z,1.80
2019-01-31T08:35:55.619Z,1.71
2019-01-31T08:36:55.535Z,1.74
2019-01-31T08:37:55.499Z,1.78
2019-01-31T08:38:55.507Z,1.81
2019-01-31T08:39:55.473Z,1.76
2019-01-31T08:40:55.404Z,1.68
2019-01-31T08:42:03.482Z,1.70
2019-01-31T08:42:55.328Z,1.78
2019-01-31T08:43:55.336Z,1.77
2019-01-31T08:44:55.255Z,1.73
2019-01-31T08:45:55.221Z,1.80
2019-01-31T08:46:55.189Z,1.77
2019-01-31T08:47:55.147Z,1.77
2019-01-31T08:48:55.175Z,1.76
2019-01-31T08:49:55.124Z,1.68
2019-01-31T08:50:55.084Z,1.78
2019-01-31T08:51:55.008Z,1.71
2019-01-31T08:52:55.014Z,1.85
2019-01-31T08:53:54.938Z,1.78
2019-01-31T08:54:54.948Z,1.81
2019-01-31T08:55:54.907Z,1.78
2019-01-31T08:56:54.834Z,1.80
2019-01-31T08:57:54.839Z,1.84
2019-01-31T08:58:54.807Z,1.88
2019-01-31T08:59:54.726Z,1.99
2019-01-31T09:00:54.756Z,2.00
2019-01-31T09:01:54.659Z,1.95
2019-01-31T09:02:54.620Z,2.02
2019-01-31T09:03:54.596Z,2.06
2019-01-31T09:04:54.554Z,1.99
2019-01-31T09:05:54.567Z,2.10
2019-01-31T09:06:54.483Z,2.08
2019-01-31T09:07:54.446Z,2.14
2019-01-31T09:08:54.473Z,2.24
2019-01-31T09:09:54.384Z,2.17
2019-01-31T09:10:54.396Z,2.15
2019-01-31T09:11:54.306Z,2.17
2019-01-31T09:12:54.271Z,2.24
2019-01-31T09:13:54.236Z,2.20
2019-01-31T09:14:54.206Z,2.33
2019-01-31T09:15:54.221Z,2.33
2019-01-31T09:16:54.138Z,2.35
2019-01-31T09:17:54.136Z,2.49
2019-01-31T09:18:54.063Z,2.49
2019-01-31T09:19:54.028Z,2.50
2019-01-31T09:20:54.070Z,2.57
2019-01-31T09:21:53.964Z,2.53
2019-01-31T09:22:53.922Z,2.65
2019-01-31T09:23:53.900Z,2.61
2019-01-31T09:24:53.852Z,2.61
2019-01-31T09:25:53.866Z,2.65
2019-01-31T09:26:53.799Z,2.53
2019-01-31T09:27:53.755Z,2.47
2019-01-31T09:28:53.716Z,2.46
2019-01-31T09:29:54.380Z,2.47
2019-01-31T09:30:53.691Z,2.44
2019-01-31T09:31:53.625Z,2.49
2019-01-31T09:32:53.578Z,2.51
2019-01-31T09:33:53.543Z,2.43
2019-01-31T09:34:53.510Z,2.61
2019-01-31T09:35:53.692Z,2.50
2019-01-31T09:36:53.437Z,2.60
2019-01-31T09:37:53.444Z,2.56
2019-01-31T09:38:53.365Z,2.43
2019-01-31T09:39:53.391Z,2.42
2019-01-31T09:40:53.293Z,2.51
2019-01-31T09:41:53.261Z,2.44
2019-01-31T09:42:53.231Z,2.42
2019-01-31T09:43:53.251Z,2.44
2019-01-31T09:44:53.195Z,2.44
2019-01-31T09:45:53.119Z,2.60
2019-01-31T09:46:53.087Z,2.57
2019-01-31T09:47:53.096Z,2.57
2019-01-31T09:48:53.683Z,2.57
2019-01-31T09:49:53.104Z,2.62
2019-01-31T09:50:52.953Z,2.57
2019-01-31T09:51:52.909Z,2.57
2019-01-31T09:52:54.482Z,2.68
2019-01-31T09:53:52.892Z,2.62
2019-01-31T09:54:52.803Z,2.61
2019-01-31T09:55:52.775Z,2.64
2019-01-31T09:56:52.736Z,2.74
2019-01-31T09:57:52.704Z,2.69
2019-01-31T09:58:52.731Z,2.69
2019-01-31T09:59:52.636Z,2.67
2019-01-31T10:00:52.641Z,2.69
2019-01-31T10:01:53.125Z,2.74
2019-01-31T10:02:52.525Z,2.77
2019-01-31T10:03:52.502Z,2.79
2019-01-31T10:04:52.511Z,2.83
2019-01-31T10:05:52.418Z,2.95
2019-01-31T10:06:52.386Z,2.97
2019-01-31T10:07:52.354Z,2.97
2019-01-31T10:08:52.318Z,3.00
2019-01-31T10:09:52.366Z,2.95
2019-01-31T10:10:52.337Z,2.90
2019-01-31T10:11:52.234Z,2.98
2019-01-31T10:12:52.177Z,3.04
2019-01-31T10:13:52.144Z,2.97
2019-01-31T10:14:52.223Z,3.13
2019-01-31T10:15:52.138Z,3.14
2019-01-31T10:16:52.170Z,3.19
2019-01-31T10:17:52.015Z,3.23
2019-01-31T10:18:51.994Z,3.19
2019-01-31T10:19:51.944Z,3.26
2019-01-31T10:20:51.955Z,3.23
2019-01-31T10:21:51.876Z,3.44
2019-01-31T10:22:51.834Z,3.42
2019-01-31T10:23:51.870Z,3.37
2019-01-31T10:24:54.444Z,3.53
2019-01-31T10:25:51.777Z,3.53
2019-01-31T10:26:51.702Z,3.55
2019-01-31T10:27:51.660Z,3.55
2019-01-31T10:28:51.628Z,3.59
2019-01-31T10:29:53.037Z,3.59
2019-01-31T10:30:51.605Z,3.66
2019-01-31T10:31:51.526Z,3.59
2019-01-31T10:32:51.491Z,3.58
2019-01-31T10:33:51.501Z,3.56
2019-01-31T10:34:51.418Z,3.65
2019-01-31T10:35:51.396Z,3.59
2019-01-31T10:36:51.363Z,3.60
2019-01-31T10:37:51.317Z,3.62
2019-01-31T10:38:51.337Z,3.53
2019-01-31T10:39:51.248Z,3.51
2019-01-31T10:40:51.215Z,3.59
2019-01-31T10:41:51.177Z,3.60
2019-01-31T10:42:52.327Z,3.62
2019-01-31T10:43:51.153Z,3.59
2019-01-31T10:44:51.077Z,3.73
2019-01-31T10:45:51.043Z,3.62
2019-01-31T10:46:51.013Z,3.60
2019-01-31T10:47:50.978Z,3.65
2019-01-31T10:48:50.985Z,3.76
2019-01-31T10:49:50.909Z,3.70
2019-01-31T10:50:50.874Z,3.70
2019-01-31T10:51:50.858Z,3.77
2019-01-31T10:52:50.854Z,3.88
2019-01-31T10:53:50.774Z,3.83
2019-01-31T10:54:50.734Z,3.70
2019-01-31T10:55:50.704Z,3.78
2019-01-31T10:56:50.725Z,3.87
2019-01-31T10:57:50.635Z,3.86
2019-01-31T10:58:50.600Z,3.84
2019-01-31T10:59:50.566Z,3.83
2019-01-31T11:00:50.573Z,3.81
2019-01-31T11:01:50.502Z,3.91
2019-01-31T11:02:50.467Z,3.87
2019-01-31T11:03:50.430Z,3.87
2019-01-31T11:04:50.392Z,4.02
2019-01-31T11:05:50.684Z,3.96
2019-01-31T11:06:50.328Z,3.92
2019-01-31T11:07:50.333Z,3.94
2019-01-31T11:08:50.254Z,3.87
2019-01-31T11:09:50.221Z,3.86
2019-01-31T11:10:50.237Z,3.94
2019-01-31T11:11:50.202Z,4.01
2019-01-31T11:12:59.982Z,4.01
2019-01-31T11:13:50.086Z,4.08
2019-01-31T11:14:50.049Z,4.22
2019-01-31T11:15:50.073Z,4.14
2019-01-31T11:16:49.983Z,4.17
2019-01-31T11:17:49.949Z,4.19
2019-01-31T11:18:49.913Z,4.17
2019-01-31T11:19:49.880Z,4.12
2019-01-31T11:20:49.908Z,4.19
2019-01-31T11:21:53.038Z,4.12
2019-01-31T11:22:49.775Z,4.10
2019-01-31T11:23:49.743Z,4.17
2019-01-31T11:24:50.538Z,4.14
2019-01-31T11:25:49.714Z,4.22
2019-01-31T11:26:49.647Z,4.31
2019-01-31T11:27:49.606Z,4.35
2019-01-31T11:28:50.539Z,4.42
2019-01-31T11:29:49.587Z,4.41
2019-01-31T11:30:49.506Z,4.42
2019-01-31T11:31:49.474Z,4.42
2019-01-31T11:32:49.437Z,4.45
2019-01-31T11:33:49.414Z,4.48
2019-01-31T11:34:50.416Z,4.44
2019-01-31T11:35:49.354Z,4.41
2019-01-31T11:36:50.040Z,4.30
2019-01-31T11:37:49.368Z,4.19
2019-01-31T11:38:50.040Z,4.28
2019-01-31T11:39:50.141Z,4.30
2019-01-31T11:40:49.217Z,4.28
2019-01-31T11:41:49.133Z,4.34
2019-01-31T11:42:49.104Z,4.26
2019-01-31T11:43:49.081Z,4.20
2019-01-31T11:44:49.131Z,4.23
2019-01-31T11:45:49.011Z,4.30
2019-01-31T11:46:48.978Z,4.32
2019-01-31T11:47:48.930Z,4.38
2019-01-31T11:48:48.904Z,4.45
2019-01-31T11:49:50.026Z,4.48
2019-01-31T11:50:48.854Z,4.59
2019-01-31T11:51:48.804Z,4.60
2019-01-31T11:52:48.767Z,4.73
2019-01-31T11:53:48.735Z,4.77
2019-01-31T11:54:48.744Z,4.60
2019-01-31T11:55:48.678Z,4.59
2019-01-31T11:56:48.630Z,4.66
2019-01-31T11:57:48.652Z,4.71
2019-01-31T11:58:48.565Z,4.84
2019-01-31T11:59:48.600Z,4.80
2019-01-31T12:00:48.499Z,4.89
2019-01-31T12:01:48.464Z,4.94
2019-01-31T12:02:55.181Z,4.93
2019-01-31T12:03:48.397Z,4.94
2019-01-31T12:04:48.370Z,4.97
2019-01-31T12:05:48.374Z,5.17
2019-01-31T12:06:48.317Z,5.20
2019-01-31T12:07:48.269Z,5.29
2019-01-31T12:08:48.283Z,5.38
2019-01-31T12:09:48.216Z,5.43
2019-01-31T12:10:48.166Z,5.50
2019-01-31T12:11:48.133Z,5.71
2019-01-31T12:12:48.098Z,5.69
2019-01-31T12:13:48.113Z,5.89
2019-01-31T12:14:48.057Z,5.98
2019-01-31T12:15:48.001Z,6.01
2019-01-31T12:16:47.972Z,6.09
2019-01-31T12:17:47.940Z,6.09
2019-01-31T12:18:47.956Z,6.09
2019-01-31T12:19:47.872Z,6.16
2019-01-31T12:20:47.843Z,6.19
2019-01-31T12:21:47.859Z,6.24
2019-01-31T12:22:47.785Z,6.26
2019-01-31T12:23:47.746Z,6.28
2019-01-31T12:24:47.712Z,6.38
2019-01-31T12:25:47.689Z,6.41
2019-01-31T12:26:48.192Z,6.48
2019-01-31T12:27:47.623Z,6.39
2019-01-31T12:28:47.589Z,6.54
2019-01-31T12:29:47.557Z,6.45
2019-01-31T12:30:47.594Z,6.46
2019-01-31T12:31:47.644Z,6.42
2019-01-31T12:32:47.462Z,6.33
2019-01-31T12:33:47.430Z,6.42
2019-01-31T12:34:47.408Z,6.39
2019-01-31T12:35:47.366Z,6.38
2019-01-31T12:36:47.378Z,6.30
2019-01-31T12:37:47.302Z,6.30
2019-01-31T12:38:47.318Z,6.36
2019-01-31T12:39:47.241Z,6.39
2019-01-31T12:40:47.221Z,6.30
2019-01-31T12:41:47.200Z,6.26
2019-01-31T12:42:47.203Z,6.22
2019-01-31T12:43:47.113Z,6.24
2019-01-31T12:44:48.048Z,6.26
2019-01-31T12:45:47.091Z,6.20
2019-01-31T12:46:47.033Z,6.09
2019-01-31T12:47:46.989Z,6.09
2019-01-31T12:48:47.001Z,6.02
2019-01-31T12:49:46.932Z,5.97
2019-01-31T12:50:46.897Z,5.86
2019-01-31T12:51:46.922Z,5.76
2019-01-31T12:52:46.848Z,5.80
2019-01-31T12:53:46.807Z,5.84
2019-01-31T12:54:46.778Z,5.84
2019-01-31T12:55:47.645Z,5.83
2019-01-31T12:56:46.767Z,5.99
2019-01-31T12:57:46.675Z,6.01
2019-01-31T12:58:46.670Z,5.98
2019-01-31T12:59:46.611Z,5.90
2019-01-31T13:00:46.576Z,5.98
2019-01-31T13:01:46.595Z,6.05
2019-01-31T13:02:46.562Z,6.12
2019-01-31T13:03:46.489Z,5.97
2019-01-31T13:04:46.457Z,6.02
2019-01-31T13:05:46.429Z,6.01
2019-01-31T13:06:46.386Z,6.05
2019-01-31T13:07:46.403Z,6.01
2019-01-31T13:08:46.404Z,5.93
2019-01-31T13:09:46.312Z,6.07
2019-01-31T13:10:46.265Z,5.91
2019-01-31T13:11:46.232Z,5.99